sensor_id;sensor_type;location;lat;lon;timestamp;P1;durP1;ratioP1;P2;durP2;ratioP2
32407;SDS011;18869;55.970;37.502;2023-04-24T00:00:14;31.33;;;18.03;;
32407;SDS011;18869;55.970;37.502;2023-04-24T00:02:43;34.20;;;18.20;;
32407;SDS011;18869;55.970;37.502;2023-04-24T00:05:12;24.80;;;16.73;;
32407;SDS011;18869;55.970;37.502;2023-04-24T00:07:41;26.80;;;14.90;;
32407;SDS011;18869;55.970;37.502;2023-04-24T00:10:09;26.83;;;15.43;;
32407;SDS011;18869;55.970;37.502;2023-04-24T00:12:39;31.47;;;16.33;;
32407;SDS011;18869;55.970;37.502;2023-04-24T00:15:07;28.83;;;16.17;;
32407;SDS011;18869;55.970;37.502;2023-04-24T00:17:36;27.37;;;16.07;;
32407;SDS011;18869;55.970;37.502;2023-04-24T00:20:04;33.23;;;17.53;;
32407;SDS011;18869;55.970;37.502;2023-04-24T00:22:33;29.90;;;15.87;;
32407;SDS011;18869;55.970;37.502;2023-04-24T00:25:02;31.30;;;16.77;;
32407;SDS011;18869;55.970;37.502;2023-04-24T00:27:31;30.73;;;15.93;;
32407;SDS011;18869;55.970;37.502;2023-04-24T00:30:02;26.63;;;15.47;;
32407;SDS011;18869;55.970;37.502;2023-04-24T00:32:31;25.80;;;15.30;;
32407;SDS011;18869;55.970;37.502;2023-04-24T00:34:59;31.83;;;16.27;;
32407;SDS011;18869;55.970;37.502;2023-04-24T00:37:30;23.43;;;15.50;;
32407;SDS011;18869;55.970;37.502;2023-04-24T00:39:57;29.60;;;14.63;;
32407;SDS011;18869;55.970;37.502;2023-04-24T00:42:25;28.90;;;16.17;;
32407;SDS011;18869;55.970;37.502;2023-04-24T00:44:53;24.73;;;14.87;;
32407;SDS011;18869;55.970;37.502;2023-04-24T00:47:24;19.83;;;13.40;;
32407;SDS011;18869;55.970;37.502;2023-04-24T00:49:52;28.27;;;16.23;;
32407;SDS011;18869;55.970;37.502;2023-04-24T00:52:20;32.47;;;14.37;;
32407;SDS011;18869;55.970;37.502;2023-04-24T00:54:50;31.53;;;14.70;;
32407;SDS011;18869;55.970;37.502;2023-04-24T00:57:17;25.03;;;14.80;;
32407;SDS011;18869;55.970;37.502;2023-04-24T00:59:45;23.70;;;15.23;;
32407;SDS011;18869;55.970;37.502;2023-04-24T01:02:13;24.37;;;15.00;;
32407;SDS011;18869;55.970;37.502;2023-04-24T01:04:42;23.97;;;14.23;;
32407;SDS011;18869;55.970;37.502;2023-04-24T01:07:12;29.03;;;15.17;;
32407;SDS011;18869;55.970;37.502;2023-04-24T01:09:40;25.80;;;13.90;;
32407;SDS011;18869;55.970;37.502;2023-04-24T01:12:08;24.77;;;14.23;;
32407;SDS011;18869;55.970;37.502;2023-04-24T01:14:37;27.20;;;13.73;;
32407;SDS011;18869;55.970;37.502;2023-04-24T01:17:07;26.73;;;12.67;;
32407;SDS011;18869;55.970;37.502;2023-04-24T01:19:35;22.80;;;12.73;;
32407;SDS011;18869;55.970;37.502;2023-04-24T01:22:08;23.77;;;14.07;;
32407;SDS011;18869;55.970;37.502;2023-04-24T01:24:37;23.23;;;12.83;;
32407;SDS011;18869;55.970;37.502;2023-04-24T01:27:05;22.07;;;14.33;;
32407;SDS011;18869;55.970;37.502;2023-04-24T01:29:34;25.10;;;14.20;;
32407;SDS011;18869;55.970;37.502;2023-04-24T01:32:02;24.33;;;14.33;;
32407;SDS011;18869;55.970;37.502;2023-04-24T01:34:31;21.73;;;13.57;;
32407;SDS011;18869;55.970;37.502;2023-04-24T01:36:58;23.50;;;14.60;;
32407;SDS011;18869;55.970;37.502;2023-04-24T01:39:28;18.60;;;13.93;;
32407;SDS011;18869;55.970;37.502;2023-04-24T01:41:56;24.33;;;13.93;;
32407;SDS011;18869;55.970;37.502;2023-04-24T01:44:24;24.00;;;14.87;;
32407;SDS011;18869;55.970;37.502;2023-04-24T01:46:53;25.47;;;14.53;;
32407;SDS011;18869;55.970;37.502;2023-04-24T01:49:23;25.67;;;14.47;;
32407;SDS011;18869;55.970;37.502;2023-04-24T01:51:50;26.17;;;14.67;;
32407;SDS011;18869;55.970;37.502;2023-04-24T01:54:18;21.83;;;12.67;;
32407;SDS011;18869;55.970;37.502;2023-04-24T01:56:47;25.03;;;15.40;;
32407;SDS011;18869;55.970;37.502;2023-04-24T01:59:15;24.63;;;14.17;;
32407;SDS011;18869;55.970;37.502;2023-04-24T02:01:44;19.77;;;13.57;;
32407;SDS011;18869;55.970;37.502;2023-04-24T02:04:12;23.23;;;14.93;;
32407;SDS011;18869;55.970;37.502;2023-04-24T02:06:40;25.40;;;14.17;;
32407;SDS011;18869;55.970;37.502;2023-04-24T02:09:08;21.17;;;12.77;;
32407;SDS011;18869;55.970;37.502;2023-04-24T02:11:36;22.40;;;14.03;;
32407;SDS011;18869;55.970;37.502;2023-04-24T02:14:06;24.43;;;14.93;;
32407;SDS011;18869;55.970;37.502;2023-04-24T02:16:34;22.30;;;13.23;;
32407;SDS011;18869;55.970;37.502;2023-04-24T02:19:01;31.63;;;14.70;;
32407;SDS011;18869;55.970;37.502;2023-04-24T02:21:30;21.40;;;13.70;;
32407;SDS011;18869;55.970;37.502;2023-04-24T02:23:57;25.30;;;14.63;;
32407;SDS011;18869;55.970;37.502;2023-04-24T02:26:25;24.47;;;13.60;;
32407;SDS011;18869;55.970;37.502;2023-04-24T02:28:53;25.53;;;13.03;;
32407;SDS011;18869;55.970;37.502;2023-04-24T02:31:22;24.50;;;13.60;;
32407;SDS011;18869;55.970;37.502;2023-04-24T02:33:50;25.93;;;14.43;;
32407;SDS011;18869;55.970;37.502;2023-04-24T02:36:18;23.53;;;13.60;;
32407;SDS011;18869;55.970;37.502;2023-04-24T02:38:47;26.20;;;13.50;;
32407;SDS011;18869;55.970;37.502;2023-04-24T02:41:16;26.50;;;15.20;;
32407;SDS011;18869;55.970;37.502;2023-04-24T02:43:44;26.90;;;14.27;;
32407;SDS011;18869;55.970;37.502;2023-04-24T02:46:13;23.03;;;13.93;;
32407;SDS011;18869;55.970;37.502;2023-04-24T02:48:42;24.87;;;14.70;;
32407;SDS011;18869;55.970;37.502;2023-04-24T02:51:11;22.33;;;13.73;;
32407;SDS011;18869;55.970;37.502;2023-04-24T02:53:39;27.10;;;13.27;;
32407;SDS011;18869;55.970;37.502;2023-04-24T02:56:06;22.67;;;12.23;;
32407;SDS011;18869;55.970;37.502;2023-04-24T02:58:38;28.33;;;14.73;;
32407;SDS011;18869;55.970;37.502;2023-04-24T03:01:06;20.80;;;12.93;;
32407;SDS011;18869;55.970;37.502;2023-04-24T03:03:36;21.47;;;13.30;;
32407;SDS011;18869;55.970;37.502;2023-04-24T03:06:06;20.53;;;13.67;;
32407;SDS011;18869;55.970;37.502;2023-04-24T03:08:34;24.13;;;12.90;;
32407;SDS011;18869;55.970;37.502;2023-04-24T03:11:01;21.27;;;13.53;;
32407;SDS011;18869;55.970;37.502;2023-04-24T03:13:30;20.30;;;12.70;;
32407;SDS011;18869;55.970;37.502;2023-04-24T03:15:57;22.10;;;12.30;;
32407;SDS011;18869;55.970;37.502;2023-04-24T03:18:27;22.30;;;13.20;;
32407;SDS011;18869;55.970;37.502;2023-04-24T03:20:56;21.87;;;13.83;;
32407;SDS011;18869;55.970;37.502;2023-04-24T03:23:25;24.60;;;14.13;;
32407;SDS011;18869;55.970;37.502;2023-04-24T03:25:53;27.73;;;14.93;;
32407;SDS011;18869;55.970;37.502;2023-04-24T03:28:21;26.00;;;13.67;;
32407;SDS011;18869;55.970;37.502;2023-04-24T03:30:49;29.03;;;14.70;;
32407;SDS011;18869;55.970;37.502;2023-04-24T03:33:17;24.30;;;12.47;;
32407;SDS011;18869;55.970;37.502;2023-04-24T03:35:46;27.63;;;13.77;;
32407;SDS011;18869;55.970;37.502;2023-04-24T03:38:14;23.70;;;13.27;;
32407;SDS011;18869;55.970;37.502;2023-04-24T03:40:44;26.63;;;13.83;;
32407;SDS011;18869;55.970;37.502;2023-04-24T03:43:13;22.73;;;13.70;;
32407;SDS011;18869;55.970;37.502;2023-04-24T03:45:41;27.70;;;14.20;;
32407;SDS011;18869;55.970;37.502;2023-04-24T03:48:10;24.13;;;14.83;;
32407;SDS011;18869;55.970;37.502;2023-04-24T03:50:38;29.17;;;15.17;;
32407;SDS011;18869;55.970;37.502;2023-04-24T03:53:06;26.60;;;13.97;;
32407;SDS011;18869;55.970;37.502;2023-04-24T03:55:34;29.53;;;16.47;;
32407;SDS011;18869;55.970;37.502;2023-04-24T03:58:04;26.20;;;15.23;;
32407;SDS011;18869;55.970;37.502;2023-04-24T04:00:31;23.13;;;14.73;;
32407;SDS011;18869;55.970;37.502;2023-04-24T04:03:01;34.83;;;16.77;;
32407;SDS011;18869;55.970;37.502;2023-04-24T04:05:29;27.30;;;15.17;;
32407;SDS011;18869;55.970;37.502;2023-04-24T04:07:57;26.17;;;13.80;;
32407;SDS011;18869;55.970;37.502;2023-04-24T04:10:25;28.77;;;14.77;;
32407;SDS011;18869;55.970;37.502;2023-04-24T04:12:52;19.57;;;12.73;;
32407;SDS011;18869;55.970;37.502;2023-04-24T04:15:21;26.20;;;15.90;;
32407;SDS011;18869;55.970;37.502;2023-04-24T04:17:50;27.03;;;15.30;;
32407;SDS011;18869;55.970;37.502;2023-04-24T04:20:18;20.97;;;14.30;;
32407;SDS011;18869;55.970;37.502;2023-04-24T04:22:46;21.70;;;14.63;;
32407;SDS011;18869;55.970;37.502;2023-04-24T04:25:15;30.60;;;14.57;;
32407;SDS011;18869;55.970;37.502;2023-04-24T04:27:46;24.07;;;13.53;;
32407;SDS011;18869;55.970;37.502;2023-04-24T04:30:15;19.60;;;13.07;;
32407;SDS011;18869;55.970;37.502;2023-04-24T04:32:46;20.37;;;14.10;;
32407;SDS011;18869;55.970;37.502;2023-04-24T04:35:13;19.43;;;13.27;;
32407;SDS011;18869;55.970;37.502;2023-04-24T04:37:42;25.13;;;12.33;;
32407;SDS011;18869;55.970;37.502;2023-04-24T04:40:10;27.87;;;14.53;;
32407;SDS011;18869;55.970;37.502;2023-04-24T04:42:39;21.50;;;13.07;;
32407;SDS011;18869;55.970;37.502;2023-04-24T04:45:12;18.87;;;13.07;;
32407;SDS011;18869;55.970;37.502;2023-04-24T04:47:43;20.23;;;13.67;;
32407;SDS011;18869;55.970;37.502;2023-04-24T04:50:14;25.13;;;13.37;;
32407;SDS011;18869;55.970;37.502;2023-04-24T04:52:46;18.90;;;12.40;;
32407;SDS011;18869;55.970;37.502;2023-04-24T04:55:14;15.77;;;11.83;;
32407;SDS011;18869;55.970;37.502;2023-04-24T04:57:45;16.10;;;11.20;;
32407;SDS011;18869;55.970;37.502;2023-04-24T05:00:13;13.47;;;10.30;;
32407;SDS011;18869;55.970;37.502;2023-04-24T05:02:42;17.93;;;10.47;;
32407;SDS011;18869;55.970;37.502;2023-04-24T05:05:10;18.73;;;11.60;;
32407;SDS011;18869;55.970;37.502;2023-04-24T05:07:39;12.57;;;9.80;;
32407;SDS011;18869;55.970;37.502;2023-04-24T05:10:07;15.87;;;10.70;;
32407;SDS011;18869;55.970;37.502;2023-04-24T05:12:36;14.23;;;10.40;;
32407;SDS011;18869;55.970;37.502;2023-04-24T05:15:03;19.30;;;11.53;;
32407;SDS011;18869;55.970;37.502;2023-04-24T05:17:32;12.50;;;8.77;;
32407;SDS011;18869;55.970;37.502;2023-04-24T05:20:00;13.27;;;8.93;;
32407;SDS011;18869;55.970;37.502;2023-04-24T05:22:30;11.03;;;8.00;;
32407;SDS011;18869;55.970;37.502;2023-04-24T05:24:59;11.00;;;7.27;;
32407;SDS011;18869;55.970;37.502;2023-04-24T05:27:30;13.07;;;8.33;;
32407;SDS011;18869;55.970;37.502;2023-04-24T05:29:58;10.67;;;7.40;;
32407;SDS011;18869;55.970;37.502;2023-04-24T05:32:26;11.77;;;7.30;;
32407;SDS011;18869;55.970;37.502;2023-04-24T05:34:54;7.97;;;6.83;;
32407;SDS011;18869;55.970;37.502;2023-04-24T05:37:22;8.90;;;6.30;;
32407;SDS011;18869;55.970;37.502;2023-04-24T05:39:50;8.43;;;6.55;;
32407;SDS011;18869;55.970;37.502;2023-04-24T05:42:20;9.75;;;6.43;;
32407;SDS011;18869;55.970;37.502;2023-04-24T05:44:49;8.35;;;6.28;;
32407;SDS011;18869;55.970;37.502;2023-04-24T05:47:17;14.27;;;6.18;;
32407;SDS011;18869;55.970;37.502;2023-04-24T05:49:45;9.90;;;5.82;;
32407;SDS011;18869;55.970;37.502;2023-04-24T05:52:13;7.68;;;5.72;;
32407;SDS011;18869;55.970;37.502;2023-04-24T05:54:43;17.70;;;6.90;;
32407;SDS011;18869;55.970;37.502;2023-04-24T05:57:11;7.80;;;5.65;;
32407;SDS011;18869;55.970;37.502;2023-04-24T05:59:44;9.00;;;5.60;;
32407;SDS011;18869;55.970;37.502;2023-04-24T06:02:13;7.25;;;5.50;;
32407;SDS011;18869;55.970;37.502;2023-04-24T06:04:43;7.03;;;5.10;;
32407;SDS011;18869;55.970;37.502;2023-04-24T06:07:12;6.87;;;4.82;;
32407;SDS011;18869;55.970;37.502;2023-04-24T06:09:40;7.00;;;5.00;;
32407;SDS011;18869;55.970;37.502;2023-04-24T06:12:08;7.70;;;5.32;;
32407;SDS011;18869;55.970;37.502;2023-04-24T06:14:37;9.55;;;6.45;;
32407;SDS011;18869;55.970;37.502;2023-04-24T06:17:07;8.88;;;5.43;;
32407;SDS011;18869;55.970;37.502;2023-04-24T06:19:35;9.63;;;4.57;;
32407;SDS011;18869;55.970;37.502;2023-04-24T06:22:03;6.28;;;4.53;;
32407;SDS011;18869;55.970;37.502;2023-04-24T06:24:31;6.10;;;4.22;;
32407;SDS011;18869;55.970;37.502;2023-04-24T06:26:59;7.05;;;4.62;;
32407;SDS011;18869;55.970;37.502;2023-04-24T06:29:27;5.62;;;4.22;;
32407;SDS011;18869;55.970;37.502;2023-04-24T06:31:55;8.02;;;4.68;;
32407;SDS011;18869;55.970;37.502;2023-04-24T06:34:24;8.70;;;4.90;;
32407;SDS011;18869;55.970;37.502;2023-04-24T06:36:52;7.93;;;4.50;;
32407;SDS011;18869;55.970;37.502;2023-04-24T06:39:21;7.65;;;4.85;;
32407;SDS011;18869;55.970;37.502;2023-04-24T06:41:49;8.98;;;4.45;;
32407;SDS011;18869;55.970;37.502;2023-04-24T06:44:18;8.65;;;5.05;;
32407;SDS011;18869;55.970;37.502;2023-04-24T06:46:46;7.57;;;5.05;;
32407;SDS011;18869;55.970;37.502;2023-04-24T06:49:14;7.68;;;4.57;;
32407;SDS011;18869;55.970;37.502;2023-04-24T06:51:44;9.10;;;4.82;;
32407;SDS011;18869;55.970;37.502;2023-04-24T06:54:12;4.53;;;3.70;;
32407;SDS011;18869;55.970;37.502;2023-04-24T06:56:41;4.68;;;3.92;;
32407;SDS011;18869;55.970;37.502;2023-04-24T06:59:11;4.72;;;4.20;;
32407;SDS011;18869;55.970;37.502;2023-04-24T07:01:39;8.07;;;3.67;;
32407;SDS011;18869;55.970;37.502;2023-04-24T07:04:07;7.07;;;4.55;;
32407;SDS011;18869;55.970;37.502;2023-04-24T07:06:35;7.97;;;3.78;;
32407;SDS011;18869;55.970;37.502;2023-04-24T07:09:04;4.15;;;3.70;;
32407;SDS011;18869;55.970;37.502;2023-04-24T07:11:34;4.97;;;3.78;;
32407;SDS011;18869;55.970;37.502;2023-04-24T07:14:03;4.87;;;3.87;;
32407;SDS011;18869;55.970;37.502;2023-04-24T07:16:31;5.37;;;3.70;;
32407;SDS011;18869;55.970;37.502;2023-04-24T07:18:59;6.07;;;4.32;;
32407;SDS011;18869;55.970;37.502;2023-04-24T07:21:27;5.65;;;4.35;;
32407;SDS011;18869;55.970;37.502;2023-04-24T07:23:54;5.18;;;4.28;;
32407;SDS011;18869;55.970;37.502;2023-04-24T07:26:25;7.32;;;4.20;;
32407;SDS011;18869;55.970;37.502;2023-04-24T07:28:53;5.75;;;4.35;;
32407;SDS011;18869;55.970;37.502;2023-04-24T07:31:20;6.45;;;4.40;;
32407;SDS011;18869;55.970;37.502;2023-04-24T07:33:48;5.57;;;4.50;;
32407;SDS011;18869;55.970;37.502;2023-04-24T07:36:16;5.50;;;3.72;;
32407;SDS011;18869;55.970;37.502;2023-04-24T07:38:45;4.35;;;3.50;;
32407;SDS011;18869;55.970;37.502;2023-04-24T07:41:14;4.68;;;3.30;;
32407;SDS011;18869;55.970;37.502;2023-04-24T07:43:43;4.62;;;3.33;;
32407;SDS011;18869;55.970;37.502;2023-04-24T07:46:11;5.40;;;3.78;;
32407;SDS011;18869;55.970;37.502;2023-04-24T07:48:39;6.03;;;2.75;;
32407;SDS011;18869;55.970;37.502;2023-04-24T07:51:07;5.15;;;3.45;;
32407;SDS011;18869;55.970;37.502;2023-04-24T07:53:37;4.15;;;3.40;;
32407;SDS011;18869;55.970;37.502;2023-04-24T07:56:05;6.90;;;3.00;;
32407;SDS011;18869;55.970;37.502;2023-04-24T07:58:33;5.50;;;3.30;;
32407;SDS011;18869;55.970;37.502;2023-04-24T08:01:02;3.33;;;2.80;;
32407;SDS011;18869;55.970;37.502;2023-04-24T08:03:30;5.43;;;2.83;;
32407;SDS011;18869;55.970;37.502;2023-04-24T08:05:58;4.78;;;3.47;;
32407;SDS011;18869;55.970;37.502;2023-04-24T08:08:26;3.20;;;2.40;;
32407;SDS011;18869;55.970;37.502;2023-04-24T08:10:54;4.90;;;2.80;;
32407;SDS011;18869;55.970;37.502;2023-04-24T08:13:22;5.07;;;3.50;;
32407;SDS011;18869;55.970;37.502;2023-04-24T08:15:49;2.70;;;2.50;;
32407;SDS011;18869;55.970;37.502;2023-04-24T08:18:19;3.47;;;2.87;;
32407;SDS011;18869;55.970;37.502;2023-04-24T08:20:49;7.37;;;3.80;;
32407;SDS011;18869;55.970;37.502;2023-04-24T08:23:17;5.30;;;3.42;;
32407;SDS011;18869;55.970;37.502;2023-04-24T08:25:44;3.92;;;3.50;;
32407;SDS011;18869;55.970;37.502;2023-04-24T08:28:12;7.07;;;3.20;;
32407;SDS011;18869;55.970;37.502;2023-04-24T08:30:46;5.37;;;3.35;;
32407;SDS011;18869;55.970;37.502;2023-04-24T08:33:21;8.32;;;3.42;;
32407;SDS011;18869;55.970;37.502;2023-04-24T08:35:52;4.97;;;3.15;;
32407;SDS011;18869;55.970;37.502;2023-04-24T08:38:20;5.07;;;3.78;;
32407;SDS011;18869;55.970;37.502;2023-04-24T08:40:48;5.05;;;3.78;;
32407;SDS011;18869;55.970;37.502;2023-04-24T08:43:16;4.07;;;3.20;;
32407;SDS011;18869;55.970;37.502;2023-04-24T08:45:44;3.85;;;3.55;;
32407;SDS011;18869;55.970;37.502;2023-04-24T08:48:12;5.35;;;3.70;;
32407;SDS011;18869;55.970;37.502;2023-04-24T08:50:42;4.40;;;3.28;;
32407;SDS011;18869;55.970;37.502;2023-04-24T08:53:10;4.22;;;3.28;;
32407;SDS011;18869;55.970;37.502;2023-04-24T08:55:38;4.50;;;3.58;;
32407;SDS011;18869;55.970;37.502;2023-04-24T08:58:07;3.50;;;3.12;;
32407;SDS011;18869;55.970;37.502;2023-04-24T09:00:35;4.03;;;2.97;;
32407;SDS011;18869;55.970;37.502;2023-04-24T09:03:03;5.57;;;3.58;;
32407;SDS011;18869;55.970;37.502;2023-04-24T09:05:31;4.10;;;3.67;;
32407;SDS011;18869;55.970;37.502;2023-04-24T09:08:01;7.12;;;3.70;;
32407;SDS011;18869;55.970;37.502;2023-04-24T09:10:29;4.10;;;3.50;;
32407;SDS011;18869;55.970;37.502;2023-04-24T09:13:00;3.53;;;3.00;;
32407;SDS011;18869;55.970;37.502;2023-04-24T09:15:30;5.22;;;2.95;;
32407;SDS011;18869;55.970;37.502;2023-04-24T09:17:59;4.53;;;3.80;;
32407;SDS011;18869;55.970;37.502;2023-04-24T09:20:27;6.45;;;3.50;;
32407;SDS011;18869;55.970;37.502;2023-04-24T09:22:56;8.82;;;3.90;;
32407;SDS011;18869;55.970;37.502;2023-04-24T09:25:30;5.43;;;3.92;;
32407;SDS011;18869;55.970;37.502;2023-04-24T09:28:02;3.80;;;3.45;;
32407;SDS011;18869;55.970;37.502;2023-04-24T09:30:30;3.95;;;3.58;;
32407;SDS011;18869;55.970;37.502;2023-04-24T09:33:09;5.65;;;4.03;;
32407;SDS011;18869;55.970;37.502;2023-04-24T09:35:40;8.27;;;4.05;;
32407;SDS011;18869;55.970;37.502;2023-04-24T09:38:09;4.28;;;3.87;;
32407;SDS011;18869;55.970;37.502;2023-04-24T09:40:39;5.65;;;4.00;;
32407;SDS011;18869;55.970;37.502;2023-04-24T09:43:10;6.15;;;4.05;;
32407;SDS011;18869;55.970;37.502;2023-04-24T09:45:39;3.92;;;3.40;;
32407;SDS011;18869;55.970;37.502;2023-04-24T09:48:08;4.20;;;3.37;;
32407;SDS011;18869;55.970;37.502;2023-04-24T09:50:36;4.70;;;3.67;;
32407;SDS011;18869;55.970;37.502;2023-04-24T09:53:05;3.37;;;3.00;;
32407;SDS011;18869;55.970;37.502;2023-04-24T09:55:42;5.20;;;3.53;;
32407;SDS011;18869;55.970;37.502;2023-04-24T09:58:14;4.40;;;3.10;;
32407;SDS011;18869;55.970;37.502;2023-04-24T10:00:42;4.70;;;3.10;;
32407;SDS011;18869;55.970;37.502;2023-04-24T10:03:09;5.03;;;3.35;;
32407;SDS011;18869;55.970;37.502;2023-04-24T10:05:37;3.17;;;2.87;;
32407;SDS011;18869;55.970;37.502;2023-04-24T10:08:06;3.30;;;3.00;;
32407;SDS011;18869;55.970;37.502;2023-04-24T10:10:37;3.62;;;3.03;;
32407;SDS011;18869;55.970;37.502;2023-04-24T10:13:10;4.28;;;2.90;;
32407;SDS011;18869;55.970;37.502;2023-04-24T10:15:39;5.72;;;3.40;;
32407;SDS011;18869;55.970;37.502;2023-04-24T10:18:07;3.85;;;3.33;;
32407;SDS011;18869;55.970;37.502;2023-04-24T10:20:36;4.10;;;3.70;;
32407;SDS011;18869;55.970;37.502;2023-04-24T10:23:04;4.28;;;3.87;;
32407;SDS011;18869;55.970;37.502;2023-04-24T10:25:34;4.43;;;3.97;;
32407;SDS011;18869;55.970;37.502;2023-04-24T10:28:04;4.07;;;3.50;;
32407;SDS011;18869;55.970;37.502;2023-04-24T10:30:34;5.18;;;4.12;;
32407;SDS011;18869;55.970;37.502;2023-04-24T10:33:03;4.15;;;3.65;;
32407;SDS011;18869;55.970;37.502;2023-04-24T10:35:31;4.03;;;3.65;;
32407;SDS011;18869;55.970;37.502;2023-04-24T10:38:03;3.75;;;3.42;;
32407;SDS011;18869;55.970;37.502;2023-04-24T10:40:34;5.18;;;4.25;;
32407;SDS011;18869;55.970;37.502;2023-04-24T10:43:04;6.07;;;3.97;;
32407;SDS011;18869;55.970;37.502;2023-04-24T10:45:34;5.50;;;4.18;;
32407;SDS011;18869;55.970;37.502;2023-04-24T10:48:02;4.45;;;4.05;;
32407;SDS011;18869;55.970;37.502;2023-04-24T10:50:43;5.93;;;4.00;;
32407;SDS011;18869;55.970;37.502;2023-04-24T10:53:12;7.10;;;3.83;;
32407;SDS011;18869;55.970;37.502;2023-04-24T10:55:43;6.33;;;3.90;;
32407;SDS011;18869;55.970;37.502;2023-04-24T10:58:14;7.20;;;4.23;;
32407;SDS011;18869;55.970;37.502;2023-04-24T11:00:43;7.67;;;4.63;;
32407;SDS011;18869;55.970;37.502;2023-04-24T11:03:24;7.70;;;3.60;;
32407;SDS011;18869;55.970;37.502;2023-04-24T11:05:58;10.47;;;4.33;;
32407;SDS011;18869;55.970;37.502;2023-04-24T11:08:28;4.93;;;4.27;;
32407;SDS011;18869;55.970;37.502;2023-04-24T11:11:02;4.30;;;3.47;;
32407;SDS011;18869;55.970;37.502;2023-04-24T11:16:33;4.17;;;3.67;;
32407;SDS011;18869;55.970;37.502;2023-04-24T11:19:17;5.10;;;3.83;;
32407;SDS011;18869;55.970;37.502;2023-04-24T11:21:54;5.47;;;3.63;;
32407;SDS011;18869;55.970;37.502;2023-04-24T11:24:28;5.10;;;3.70;;
32407;SDS011;18869;55.970;37.502;2023-04-24T11:26:58;5.23;;;4.17;;
32407;SDS011;18869;55.970;37.502;2023-04-24T11:29:41;6.13;;;3.80;;
32407;SDS011;18869;55.970;37.502;2023-04-24T11:32:15;7.47;;;4.53;;
32407;SDS011;18869;55.970;37.502;2023-04-24T11:34:48;6.73;;;3.90;;
32407;SDS011;18869;55.970;37.502;2023-04-24T11:37:17;5.70;;;3.50;;
32407;SDS011;18869;55.970;37.502;2023-04-24T11:39:45;5.43;;;4.23;;
32407;SDS011;18869;55.970;37.502;2023-04-24T11:42:16;7.17;;;4.57;;
32407;SDS011;18869;55.970;37.502;2023-04-24T11:44:45;6.50;;;3.80;;
32407;SDS011;18869;55.970;37.502;2023-04-24T11:47:13;5.47;;;4.17;;
32407;SDS011;18869;55.970;37.502;2023-04-24T11:49:40;6.63;;;4.30;;
32407;SDS011;18869;55.970;37.502;2023-04-24T11:52:09;6.87;;;4.13;;
32407;SDS011;18869;55.970;37.502;2023-04-24T11:54:37;12.20;;;4.30;;
32407;SDS011;18869;55.970;37.502;2023-04-24T11:57:05;4.43;;;4.00;;
32407;SDS011;18869;55.970;37.502;2023-04-24T11:59:36;6.33;;;4.13;;
32407;SDS011;18869;55.970;37.502;2023-04-24T12:02:06;5.90;;;3.83;;
32407;SDS011;18869;55.970;37.502;2023-04-24T12:04:40;5.87;;;4.50;;
32407;SDS011;18869;55.970;37.502;2023-04-24T12:07:08;6.77;;;4.30;;
32407;SDS011;18869;55.970;37.502;2023-04-24T12:09:45;5.57;;;4.27;;
32407;SDS011;18869;55.970;37.502;2023-04-24T12:12:15;6.80;;;4.57;;
32407;SDS011;18869;55.970;37.502;2023-04-24T12:14:44;6.43;;;4.60;;
32407;SDS011;18869;55.970;37.502;2023-04-24T12:17:14;9.67;;;6.83;;
32407;SDS011;18869;55.970;37.502;2023-04-24T12:19:45;10.60;;;7.97;;
32407;SDS011;18869;55.970;37.502;2023-04-24T12:22:14;8.97;;;6.13;;
32407;SDS011;18869;55.970;37.502;2023-04-24T12:25:00;5.53;;;4.13;;
32407;SDS011;18869;55.970;37.502;2023-04-24T12:27:31;4.40;;;3.63;;
32407;SDS011;18869;55.970;37.502;2023-04-24T12:30:00;5.30;;;3.73;;
32407;SDS011;18869;55.970;37.502;2023-04-24T12:32:31;10.93;;;5.20;;
32407;SDS011;18869;55.970;37.502;2023-04-24T12:34:59;7.47;;;4.60;;
32407;SDS011;18869;55.970;37.502;2023-04-24T12:37:32;7.13;;;4.67;;
32407;SDS011;18869;55.970;37.502;2023-04-24T12:40:03;6.40;;;4.20;;
32407;SDS011;18869;55.970;37.502;2023-04-24T12:42:32;5.00;;;4.07;;
32407;SDS011;18869;55.970;37.502;2023-04-24T12:45:01;4.83;;;3.97;;
32407;SDS011;18869;55.970;37.502;2023-04-24T12:47:32;6.43;;;3.60;;
32407;SDS011;18869;55.970;37.502;2023-04-24T12:50:00;5.90;;;3.87;;
32407;SDS011;18869;55.970;37.502;2023-04-24T12:52:29;6.37;;;4.10;;
32407;SDS011;18869;55.970;37.502;2023-04-24T12:54:58;6.80;;;3.97;;
32407;SDS011;18869;55.970;37.502;2023-04-24T12:57:29;7.43;;;3.97;;
32407;SDS011;18869;55.970;37.502;2023-04-24T12:59:57;8.83;;;3.77;;
32407;SDS011;18869;55.970;37.502;2023-04-24T13:02:27;4.90;;;3.23;;
32407;SDS011;18869;55.970;37.502;2023-04-24T13:04:57;5.97;;;3.70;;
32407;SDS011;18869;55.970;37.502;2023-04-24T13:07:26;4.87;;;3.87;;
32407;SDS011;18869;55.970;37.502;2023-04-24T13:09:54;3.73;;;3.10;;
32407;SDS011;18869;55.970;37.502;2023-04-24T13:12:22;6.80;;;4.27;;
32407;SDS011;18869;55.970;37.502;2023-04-24T13:14:51;4.00;;;3.43;;
32407;SDS011;18869;55.970;37.502;2023-04-24T13:17:19;4.57;;;3.60;;
32407;SDS011;18869;55.970;37.502;2023-04-24T13:19:48;6.40;;;3.70;;
32407;SDS011;18869;55.970;37.502;2023-04-24T13:22:18;5.30;;;3.50;;
32407;SDS011;18869;55.970;37.502;2023-04-24T13:24:46;4.63;;;3.40;;
32407;SDS011;18869;55.970;37.502;2023-04-24T13:27:14;4.57;;;3.50;;
32407;SDS011;18869;55.970;37.502;2023-04-24T13:29:42;4.90;;;4.30;;
32407;SDS011;18869;55.970;37.502;2023-04-24T13:32:12;7.13;;;3.37;;
32407;SDS011;18869;55.970;37.502;2023-04-24T13:34:39;7.37;;;3.70;;
32407;SDS011;18869;55.970;37.502;2023-04-24T13:37:07;3.90;;;3.50;;
32407;SDS011;18869;55.970;37.502;2023-04-24T13:39:36;4.90;;;3.57;;
32407;SDS011;18869;55.970;37.502;2023-04-24T13:42:04;7.80;;;3.90;;
32407;SDS011;18869;55.970;37.502;2023-04-24T13:44:32;5.13;;;3.77;;
32407;SDS011;18869;55.970;37.502;2023-04-24T13:47:00;4.87;;;3.47;;
32407;SDS011;18869;55.970;37.502;2023-04-24T13:49:27;3.70;;;3.30;;
32407;SDS011;18869;55.970;37.502;2023-04-24T13:51:57;5.23;;;3.57;;
32407;SDS011;18869;55.970;37.502;2023-04-24T13:54:25;4.87;;;3.33;;
32407;SDS011;18869;55.970;37.502;2023-04-24T13:56:55;3.53;;;3.10;;
32407;SDS011;18869;55.970;37.502;2023-04-24T13:59:24;5.53;;;3.30;;
32407;SDS011;18869;55.970;37.502;2023-04-24T14:01:52;7.37;;;3.80;;
32407;SDS011;18869;55.970;37.502;2023-04-24T14:04:22;5.97;;;3.70;;
32407;SDS011;18869;55.970;37.502;2023-04-24T14:06:50;3.50;;;3.17;;
32407;SDS011;18869;55.970;37.502;2023-04-24T14:09:18;3.37;;;3.07;;
32407;SDS011;18869;55.970;37.502;2023-04-24T14:11:46;5.20;;;3.20;;
32407;SDS011;18869;55.970;37.502;2023-04-24T14:14:15;4.63;;;3.47;;
32407;SDS011;18869;55.970;37.502;2023-04-24T14:16:42;4.23;;;3.17;;
32407;SDS011;18869;55.970;37.502;2023-04-24T14:19:10;4.77;;;3.30;;
32407;SDS011;18869;55.970;37.502;2023-04-24T14:21:41;5.37;;;3.40;;
32407;SDS011;18869;55.970;37.502;2023-04-24T14:24:09;4.23;;;3.33;;
32407;SDS011;18869;55.970;37.502;2023-04-24T14:26:37;7.63;;;5.13;;
32407;SDS011;18869;55.970;37.502;2023-04-24T14:29:05;9.47;;;4.30;;
32407;SDS011;18869;55.970;37.502;2023-04-24T14:31:34;7.13;;;3.47;;
32407;SDS011;18869;55.970;37.502;2023-04-24T14:34:01;3.93;;;3.30;;
32407;SDS011;18869;55.970;37.502;2023-04-24T14:36:29;6.30;;;3.40;;